sensor_id;sensor_type;location;lat;lon;timestamp;P1;durP1;ratioP1;P2;durP2;ratioP2
21266;SDS011;10791;53.108;18.326;2023-04-15T00:02:17;15.27;;;9.90;;
21266;SDS011;10791;53.108;18.326;2023-04-15T00:07:21;20.70;;;11.63;;
21266;SDS011;10791;53.108;18.326;2023-04-15T00:12:25;14.90;;;10.20;;
21266;SDS011;10791;53.108;18.326;2023-04-15T00:17:29;20.70;;;11.97;;
21266;SDS011;10791;53.108;18.326;2023-04-15T00:22:33;19.63;;;11.50;;
21266;SDS011;10791;53.108;18.326;2023-04-15T00:27:37;16.40;;;12.50;;
21266;SDS011;10791;53.108;18.326;2023-04-15T00:32:40;20.03;;;13.40;;
21266;SDS011;10791;53.108;18.326;2023-04-15T00:37:43;19.57;;;11.70;;
21266;SDS011;10791;53.108;18.326;2023-04-15T00:42:47;18.60;;;12.23;;
21266;SDS011;10791;53.108;18.326;2023-04-15T00:47:50;16.27;;;12.47;;
21266;SDS011;10791;53.108;18.326;2023-04-15T00:52:54;16.87;;;11.33;;
21266;SDS011;10791;53.108;18.326;2023-04-15T00:57:57;15.87;;;11.87;;
21266;SDS011;10791;53.108;18.326;2023-04-15T01:03:01;16.50;;;11.47;;
21266;SDS011;10791;53.108;18.326;2023-04-15T01:08:05;16.80;;;12.27;;
21266;SDS011;10791;53.108;18.326;2023-04-15T01:13:08;17.43;;;12.07;;
21266;SDS011;10791;53.108;18.326;2023-04-15T01:18:11;16.43;;;12.63;;
21266;SDS011;10791;53.108;18.326;2023-04-15T01:23:16;14.67;;;10.70;;
21266;SDS011;10791;53.108;18.326;2023-04-15T01:28:19;14.77;;;10.90;;
21266;SDS011;10791;53.108;18.326;2023-04-15T01:33:22;18.23;;;11.70;;
21266;SDS011;10791;53.108;18.326;2023-04-15T01:38:26;16.63;;;11.67;;
21266;SDS011;10791;53.108;18.326;2023-04-15T01:43:29;15.90;;;11.30;;
21266;SDS011;10791;53.108;18.326;2023-04-15T01:48:33;18.13;;;11.40;;
21266;SDS011;10791;53.108;18.326;2023-04-15T01:53:36;18.27;;;10.93;;
21266;SDS011;10791;53.108;18.326;2023-04-15T01:58:39;16.03;;;10.80;;
21266;SDS011;10791;53.108;18.326;2023-04-15T02:03:43;14.57;;;11.10;;
21266;SDS011;10791;53.108;18.326;2023-04-15T02:08:46;17.03;;;11.40;;
21266;SDS011;10791;53.108;18.326;2023-04-15T02:13:49;14.87;;;10.73;;
21266;SDS011;10791;53.108;18.326;2023-04-15T02:18:53;16.73;;;11.40;;
21266;SDS011;10791;53.108;18.326;2023-04-15T02:23:57;15.03;;;10.47;;
21266;SDS011;10791;53.108;18.326;2023-04-15T02:29:00;13.93;;;9.97;;
21266;SDS011;10791;53.108;18.326;2023-04-15T02:34:04;14.97;;;10.77;;
21266;SDS011;10791;53.108;18.326;2023-04-15T02:39:07;14.93;;;10.37;;
21266;SDS011;10791;53.108;18.326;2023-04-15T02:44:11;17.83;;;11.93;;
21266;SDS011;10791;53.108;18.326;2023-04-15T02:49:15;14.50;;;10.37;;
21266;SDS011;10791;53.108;18.326;2023-04-15T02:54:18;14.07;;;10.67;;
21266;SDS011;10791;53.108;18.326;2023-04-15T02:59:22;14.07;;;9.77;;
21266;SDS011;10791;53.108;18.326;2023-04-15T03:04:25;13.53;;;10.07;;
21266;SDS011;10791;53.108;18.326;2023-04-15T03:09:31;13.97;;;10.53;;
21266;SDS011;10791;53.108;18.326;2023-04-15T03:14:35;14.37;;;9.80;;
21266;SDS011;10791;53.108;18.326;2023-04-15T03:19:38;13.37;;;9.40;;
21266;SDS011;10791;53.108;18.326;2023-04-15T03:24:41;13.07;;;9.70;;
21266;SDS011;10791;53.108;18.326;2023-04-15T03:29:45;13.30;;;9.80;;
21266;SDS011;10791;53.108;18.326;2023-04-15T03:34:48;13.03;;;9.17;;
21266;SDS011;10791;53.108;18.326;2023-04-15T03:39:52;14.33;;;9.77;;
21266;SDS011;10791;53.108;18.326;2023-04-15T03:44:55;13.73;;;9.47;;
21266;SDS011;10791;53.108;18.326;2023-04-15T03:49:58;11.90;;;9.07;;
21266;SDS011;10791;53.108;18.326;2023-04-15T03:55:01;13.63;;;8.93;;
21266;SDS011;10791;53.108;18.326;2023-04-15T04:00:05;11.60;;;9.37;;
21266;SDS011;10791;53.108;18.326;2023-04-15T04:05:10;15.13;;;10.13;;
21266;SDS011;10791;53.108;18.326;2023-04-15T04:10:14;13.87;;;9.47;;
21266;SDS011;10791;53.108;18.326;2023-04-15T04:15:17;12.60;;;8.77;;
21266;SDS011;10791;53.108;18.326;2023-04-15T04:20:21;12.67;;;9.63;;
21266;SDS011;10791;53.108;18.326;2023-04-15T04:25:24;13.23;;;9.30;;
21266;SDS011;10791;53.108;18.326;2023-04-15T04:30:28;13.07;;;9.10;;
21266;SDS011;10791;53.108;18.326;2023-04-15T04:35:32;13.83;;;9.63;;
21266;SDS011;10791;53.108;18.326;2023-04-15T04:40:36;11.50;;;9.27;;
21266;SDS011;10791;53.108;18.326;2023-04-15T04:45:39;16.07;;;9.63;;
21266;SDS011;10791;53.108;18.326;2023-04-15T04:50:43;14.20;;;8.97;;
21266;SDS011;10791;53.108;18.326;2023-04-15T04:55:48;11.23;;;8.93;;
21266;SDS011;10791;53.108;18.326;2023-04-15T05:00:52;12.67;;;9.27;;
21266;SDS011;10791;53.108;18.326;2023-04-15T05:05:55;15.23;;;9.40;;
21266;SDS011;10791;53.108;18.326;2023-04-15T05:10:58;12.87;;;9.33;;
21266;SDS011;10791;53.108;18.326;2023-04-15T05:16:02;12.93;;;9.63;;
21266;SDS011;10791;53.108;18.326;2023-04-15T05:21:09;13.47;;;9.33;;
21266;SDS011;10791;53.108;18.326;2023-04-15T05:26:12;14.60;;;9.23;;
21266;SDS011;10791;53.108;18.326;2023-04-15T05:31:16;16.97;;;10.43;;
21266;SDS011;10791;53.108;18.326;2023-04-15T05:36:19;12.77;;;9.67;;
21266;SDS011;10791;53.108;18.326;2023-04-15T05:41:22;14.70;;;9.70;;
21266;SDS011;10791;53.108;18.326;2023-04-15T05:46:25;13.47;;;9.47;;
21266;SDS011;10791;53.108;18.326;2023-04-15T05:51:29;14.27;;;10.33;;
21266;SDS011;10791;53.108;18.326;2023-04-15T05:56:33;14.73;;;9.97;;
21266;SDS011;10791;53.108;18.326;2023-04-15T06:01:36;16.43;;;11.73;;
21266;SDS011;10791;53.108;18.326;2023-04-15T06:06:39;15.53;;;10.97;;
21266;SDS011;10791;53.108;18.326;2023-04-15T06:11:43;14.23;;;10.93;;
21266;SDS011;10791;53.108;18.326;2023-04-15T06:16:46;16.20;;;11.97;;
21266;SDS011;10791;53.108;18.326;2023-04-15T06:21:50;17.37;;;12.67;;
21266;SDS011;10791;53.108;18.326;2023-04-15T06:26:53;19.23;;;13.37;;
21266;SDS011;10791;53.108;18.326;2023-04-15T06:31:56;19.73;;;14.00;;
21266;SDS011;10791;53.108;18.326;2023-04-15T06:36:59;17.07;;;13.03;;
21266;SDS011;10791;53.108;18.326;2023-04-15T06:42:06;18.03;;;12.60;;
21266;SDS011;10791;53.108;18.326;2023-04-15T06:47:09;19.53;;;13.90;;
21266;SDS011;10791;53.108;18.326;2023-04-15T06:52:14;18.03;;;13.33;;
21266;SDS011;10791;53.108;18.326;2023-04-15T06:57:18;22.97;;;14.33;;
21266;SDS011;10791;53.108;18.326;2023-04-15T07:02:27;18.60;;;13.03;;
21266;SDS011;10791;53.108;18.326;2023-04-15T07:07:31;20.00;;;13.53;;
21266;SDS011;10791;53.108;18.326;2023-04-15T07:12:39;19.27;;;14.03;;
21266;SDS011;10791;53.108;18.326;2023-04-15T07:17:43;15.77;;;12.13;;
21266;SDS011;10791;53.108;18.326;2023-04-15T07:22:47;17.97;;;13.43;;
21266;SDS011;10791;53.108;18.326;2023-04-15T07:27:51;16.73;;;11.43;;
21266;SDS011;10791;53.108;18.326;2023-04-15T07:32:55;22.83;;;12.70;;
21266;SDS011;10791;53.108;18.326;2023-04-15T07:38:00;18.13;;;12.83;;
21266;SDS011;10791;53.108;18.326;2023-04-15T07:43:04;18.70;;;13.37;;
21266;SDS011;10791;53.108;18.326;2023-04-15T07:48:08;16.77;;;12.53;;
21266;SDS011;10791;53.108;18.326;2023-04-15T07:53:15;19.30;;;12.10;;
21266;SDS011;10791;53.108;18.326;2023-04-15T07:58:19;20.23;;;14.00;;
21266;SDS011;10791;53.108;18.326;2023-04-15T08:03:23;17.50;;;12.93;;
21266;SDS011;10791;53.108;18.326;2023-04-15T08:08:27;18.23;;;13.53;;
21266;SDS011;10791;53.108;18.326;2023-04-15T08:13:30;18.50;;;12.43;;
21266;SDS011;10791;53.108;18.326;2023-04-15T08:18:34;18.23;;;12.23;;
21266;SDS011;10791;53.108;18.326;2023-04-15T08:23:37;18.40;;;12.43;;
21266;SDS011;10791;53.108;18.326;2023-04-15T08:28:42;19.20;;;13.10;;
21266;SDS011;10791;53.108;18.326;2023-04-15T08:33:47;18.60;;;12.17;;
21266;SDS011;10791;53.108;18.326;2023-04-15T08:38:53;18.77;;;12.60;;
21266;SDS011;10791;53.108;18.326;2023-04-15T08:44:00;21.07;;;13.17;;
21266;SDS011;10791;53.108;18.326;2023-04-15T08:49:06;19.00;;;12.73;;
21266;SDS011;10791;53.108;18.326;2023-04-15T08:54:14;15.67;;;12.13;;
21266;SDS011;10791;53.108;18.326;2023-04-15T08:59:19;18.07;;;12.53;;
21266;SDS011;10791;53.108;18.326;2023-04-15T09:04:23;18.83;;;13.10;;
21266;SDS011;10791;53.108;18.326;2023-04-15T09:09:27;19.10;;;11.87;;
21266;SDS011;10791;53.108;18.326;2023-04-15T09:14:32;16.33;;;12.33;;
21266;SDS011;10791;53.108;18.326;2023-04-15T09:19:36;16.90;;;10.73;;
21266;SDS011;10791;53.108;18.326;2023-04-15T09:24:39;15.67;;;12.33;;
21266;SDS011;10791;53.108;18.326;2023-04-15T09:29:44;19.30;;;12.33;;
21266;SDS011;10791;53.108;18.326;2023-04-15T09:34:52;16.50;;;12.40;;
21266;SDS011;10791;53.108;18.326;2023-04-15T09:39:55;20.97;;;13.13;;
21266;SDS011;10791;53.108;18.326;2023-04-15T09:45:10;18.23;;;12.67;;
21266;SDS011;10791;53.108;18.326;2023-04-15T09:50:14;17.87;;;11.47;;
21266;SDS011;10791;53.108;18.326;2023-04-15T09:55:17;17.30;;;12.50;;
21266;SDS011;10791;53.108;18.326;2023-04-15T10:00:21;17.90;;;12.60;;
21266;SDS011;10791;53.108;18.326;2023-04-15T10:05:24;16.60;;;12.23;;
21266;SDS011;10791;53.108;18.326;2023-04-15T10:10:28;15.57;;;10.57;;
21266;SDS011;10791;53.108;18.326;2023-04-15T10:15:31;15.53;;;10.00;;
21266;SDS011;10791;53.108;18.326;2023-04-15T10:20:35;14.63;;;11.23;;
21266;SDS011;10791;53.108;18.326;2023-04-15T10:25:42;18.33;;;11.03;;
21266;SDS011;10791;53.108;18.326;2023-04-15T10:30:48;17.00;;;11.00;;
21266;SDS011;10791;53.108;18.326;2023-04-15T10:35:52;16.20;;;11.30;;
21266;SDS011;10791;53.108;18.326;2023-04-15T10:41:31;17.87;;;12.03;;
21266;SDS011;10791;53.108;18.326;2023-04-15T10:46:44;14.83;;;10.83;;
21266;SDS011;10791;53.108;18.326;2023-04-15T10:51:50;17.53;;;11.70;;
21266;SDS011;10791;53.108;18.326;2023-04-15T11:02:11;14.10;;;10.40;;
21266;SDS011;10791;53.108;18.326;2023-04-15T11:12:51;14.10;;;10.43;;
21266;SDS011;10791;53.108;18.326;2023-04-15T11:18:07;13.93;;;9.13;;
21266;SDS011;10791;53.108;18.326;2023-04-15T11:23:12;10.87;;;8.47;;
21266;SDS011;10791;53.108;18.326;2023-04-15T11:28:17;13.33;;;9.30;;
21266;SDS011;10791;53.108;18.326;2023-04-15T11:33:21;11.97;;;8.77;;
21266;SDS011;10791;53.108;18.326;2023-04-15T11:38:26;13.20;;;9.67;;
21266;SDS011;10791;53.108;18.326;2023-04-15T11:43:30;13.60;;;9.40;;
21266;SDS011;10791;53.108;18.326;2023-04-15T11:48:35;13.53;;;9.93;;
21266;SDS011;10791;53.108;18.326;2023-04-15T11:53:44;12.77;;;9.10;;
21266;SDS011;10791;53.108;18.326;2023-04-15T11:58:53;17.30;;;10.50;;
21266;SDS011;10791;53.108;18.326;2023-04-15T12:04:01;18.10;;;10.00;;
21266;SDS011;10791;53.108;18.326;2023-04-15T12:09:12;12.90;;;10.17;;
21266;SDS011;10791;53.108;18.326;2023-04-15T12:24:31;14.13;;;9.87;;
21266;SDS011;10791;53.108;18.326;2023-04-15T12:29:39;14.63;;;10.70;;
21266;SDS011;10791;53.108;18.326;2023-04-15T12:34:51;16.17;;;11.47;;
21266;SDS011;10791;53.108;18.326;2023-04-15T12:39:59;12.87;;;9.10;;
21266;SDS011;10791;53.108;18.326;2023-04-15T12:45:02;13.60;;;9.97;;
21266;SDS011;10791;53.108;18.326;2023-04-15T12:50:06;12.00;;;9.13;;
21266;SDS011;10791;53.108;18.326;2023-04-15T12:55:10;13.33;;;9.97;;
21266;SDS011;10791;53.108;18.326;2023-04-15T13:00:14;14.83;;;9.90;;
21266;SDS011;10791;53.108;18.326;2023-04-15T13:05:17;13.47;;;10.03;;
21266;SDS011;10791;53.108;18.326;2023-04-15T13:10:21;16.43;;;10.80;;
21266;SDS011;10791;53.108;18.326;2023-04-15T13:15:24;12.07;;;9.47;;
21266;SDS011;10791;53.108;18.326;2023-04-15T13:20:28;10.63;;;7.93;;
21266;SDS011;10791;53.108;18.326;2023-04-15T13:25:31;11.63;;;8.40;;
21266;SDS011;10791;53.108;18.326;2023-04-15T13:30:36;12.77;;;8.27;;
21266;SDS011;10791;53.108;18.326;2023-04-15T13:35:39;13.20;;;8.13;;
21266;SDS011;10791;53.108;18.326;2023-04-15T13:40:43;11.83;;;8.27;;
21266;SDS011;10791;53.108;18.326;2023-04-15T13:45:47;9.63;;;7.43;;
21266;SDS011;10791;53.108;18.326;2023-04-15T13:50:50;10.37;;;7.63;;
21266;SDS011;10791;53.108;18.326;2023-04-15T13:55:55;11.27;;;7.97;;
21266;SDS011;10791;53.108;18.326;2023-04-15T14:00:58;10.80;;;8.03;;
21266;SDS011;10791;53.108;18.326;2023-04-15T14:06:05;11.97;;;8.37;;
21266;SDS011;10791;53.108;18.326;2023-04-15T14:11:08;8.63;;;6.57;;
21266;SDS011;10791;53.108;18.326;2023-04-15T14:16:12;9.07;;;6.53;;
21266;SDS011;10791;53.108;18.326;2023-04-15T14:21:15;9.97;;;6.93;;
21266;SDS011;10791;53.108;18.326;2023-04-15T14:26:18;8.53;;;6.63;;
21266;SDS011;10791;53.108;18.326;2023-04-15T14:31:22;10.57;;;7.60;;
21266;SDS011;10791;53.108;18.326;2023-04-15T14:36:26;10.80;;;7.70;;
21266;SDS011;10791;53.108;18.326;2023-04-15T14:41:30;10.20;;;7.43;;
21266;SDS011;10791;53.108;18.326;2023-04-15T14:46:34;10.40;;;8.00;;
21266;SDS011;10791;53.108;18.326;2023-04-15T14:51:38;11.20;;;8.43;;
21266;SDS011;10791;53.108;18.326;2023-04-15T14:56:43;12.63;;;8.27;;
21266;SDS011;10791;53.108;18.326;2023-04-15T15:01:46;10.37;;;8.03;;
21266;SDS011;10791;53.108;18.326;2023-04-15T15:06:50;9.83;;;6.20;;
21266;SDS011;10791;53.108;18.326;2023-04-15T15:11:54;8.30;;;6.37;;
21266;SDS011;10791;53.108;18.326;2023-04-15T15:16:59;9.83;;;6.83;;
21266;SDS011;10791;53.108;18.326;2023-04-15T15:22:03;10.20;;;7.13;;
21266;SDS011;10791;53.108;18.326;2023-04-15T15:27:07;10.07;;;7.57;;
21266;SDS011;10791;53.108;18.326;2023-04-15T15:32:11;15.70;;;9.77;;
21266;SDS011;10791;53.108;18.326;2023-04-15T15:37:15;14.07;;;9.87;;
21266;SDS011;10791;53.108;18.326;2023-04-15T15:42:18;12.13;;;9.03;;
21266;SDS011;10791;53.108;18.326;2023-04-15T15:47:21;13.83;;;9.50;;
21266;SDS011;10791;53.108;18.326;2023-04-15T15:52:25;13.27;;;9.53;;
21266;SDS011;10791;53.108;18.326;2023-04-15T15:57:29;11.73;;;9.03;;
21266;SDS011;10791;53.108;18.326;2023-04-15T16:02:33;11.40;;;8.43;;
21266;SDS011;10791;53.108;18.326;2023-04-15T16:07:59;10.97;;;7.93;;
21266;SDS011;10791;53.108;18.326;2023-04-15T16:13:03;11.47;;;7.57;;
21266;SDS011;10791;53.108;18.326;2023-04-15T16:18:07;13.27;;;7.90;;
21266;SDS011;10791;53.108;18.326;2023-04-15T16:23:14;10.97;;;7.53;;
21266;SDS011;10791;53.108;18.326;2023-04-15T16:28:18;11.37;;;7.37;;
21266;SDS011;10791;53.108;18.326;2023-04-15T16:33:28;8.60;;;6.47;;
21266;SDS011;10791;53.108;18.326;2023-04-15T16:38:32;10.63;;;7.67;;
21266;SDS011;10791;53.108;18.326;2023-04-15T16:43:37;10.27;;;7.37;;
21266;SDS011;10791;53.108;18.326;2023-04-15T16:48:41;10.67;;;7.53;;
21266;SDS011;10791;53.108;18.326;2023-04-15T16:53:45;11.73;;;7.77;;
21266;SDS011;10791;53.108;18.326;2023-04-15T16:58:50;10.17;;;7.20;;
21266;SDS011;10791;53.108;18.326;2023-04-15T17:03:54;9.37;;;7.30;;
21266;SDS011;10791;53.108;18.326;2023-04-15T17:08:59;11.23;;;7.00;;
21266;SDS011;10791;53.108;18.326;2023-04-15T17:14:07;12.87;;;7.87;;
21266;SDS011;10791;53.108;18.326;2023-04-15T17:19:12;13.83;;;8.07;;
21266;SDS011;10791;53.108;18.326;2023-04-15T17:24:15;12.73;;;8.30;;
21266;SDS011;10791;53.108;18.326;2023-04-15T17:29:19;12.23;;;7.70;;
21266;SDS011;10791;53.108;18.326;2023-04-15T17:34:23;8.30;;;5.53;;
21266;SDS011;10791;53.108;18.326;2023-04-15T17:39:47;11.30;;;6.83;;
21266;SDS011;10791;53.108;18.326;2023-04-15T17:44:52;9.63;;;6.30;;
21266;SDS011;10791;53.108;18.326;2023-04-15T17:50:00;12.23;;;7.07;;
21266;SDS011;10791;53.108;18.326;2023-04-15T17:55:06;14.23;;;8.47;;
21266;SDS011;10791;53.108;18.326;2023-04-15T18:00:10;13.83;;;8.40;;
21266;SDS011;10791;53.108;18.326;2023-04-15T18:05:17;20.13;;;10.07;;
21266;SDS011;10791;53.108;18.326;2023-04-15T18:10:22;10.93;;;6.53;;
21266;SDS011;10791;53.108;18.326;2023-04-15T18:15:30;9.17;;;6.93;;
21266;SDS011;10791;53.108;18.326;2023-04-15T18:20:35;9.80;;;7.30;;
21266;SDS011;10791;53.108;18.326;2023-04-15T18:25:42;18.90;;;8.77;;
21266;SDS011;10791;53.108;18.326;2023-04-15T18:30:48;9.27;;;6.63;;
21266;SDS011;10791;53.108;18.326;2023-04-15T18:35:53;11.93;;;7.67;;
21266;SDS011;10791;53.108;18.326;2023-04-15T18:41:00;11.63;;;8.17;;
21266;SDS011;10791;53.108;18.326;2023-04-15T18:46:06;12.07;;;7.77;;
21266;SDS011;10791;53.108;18.326;2023-04-15T18:51:16;15.17;;;9.30;;
21266;SDS011;10791;53.108;18.326;2023-04-15T18:56:20;13.67;;;8.73;;
21266;SDS011;10791;53.108;18.326;2023-04-15T19:01:29;11.43;;;7.40;;
21266;SDS011;10791;53.108;18.326;2023-04-15T19:06:37;12.57;;;7.60;;
21266;SDS011;10791;53.108;18.326;2023-04-15T19:11:42;12.73;;;8.40;;
21266;SDS011;10791;53.108;18.326;2023-04-15T19:16:47;12.73;;;8.13;;
21266;SDS011;10791;53.108;18.326;2023-04-15T19:21:53;13.67;;;7.17;;
21266;SDS011;10791;53.108;18.326;2023-04-15T19:26:58;9.83;;;5.83;;
21266;SDS011;10791;53.108;18.326;2023-04-15T19:32:04;9.77;;;6.47;;
21266;SDS011;10791;53.108;18.326;2023-04-15T19:37:09;9.70;;;6.50;;
21266;SDS011;10791;53.108;18.326;2023-04-15T19:42:15;10.73;;;7.30;;
21266;SDS011;10791;53.108;18.326;2023-04-15T19:47:20;9.80;;;7.00;;
21266;SDS011;10791;53.108;18.326;2023-04-15T19:52:25;9.93;;;7.10;;
21266;SDS011;10791;53.108;18.326;2023-04-15T19:57:34;9.47;;;6.17;;
21266;SDS011;10791;53.108;18.326;2023-04-15T20:02:41;9.63;;;7.03;;
21266;SDS011;10791;53.108;18.326;2023-04-15T20:07:48;12.47;;;7.57;;
21266;SDS011;10791;53.108;18.326;2023-04-15T20:12:55;9.67;;;6.57;;
21266;SDS011;10791;53.108;18.326;2023-04-15T20:18:02;10.30;;;6.90;;
21266;SDS011;10791;53.108;18.326;2023-04-15T20:23:08;10.33;;;6.80;;
21266;SDS011;10791;53.108;18.326;2023-04-15T20:28:13;10.47;;;6.17;;
21266;SDS011;10791;53.108;18.326;2023-04-15T20:33:20;9.23;;;6.30;;
21266;SDS011;10791;53.108;18.326;2023-04-15T20:38:27;9.50;;;6.83;;
21266;SDS011;10791;53.108;18.326;2023-04-15T20:43:33;9.23;;;6.70;;
21266;SDS011;10791;53.108;18.326;2023-04-15T20:48:37;8.43;;;7.03;;
21266;SDS011;10791;53.108;18.326;2023-04-15T20:53:41;8.30;;;6.33;;
21266;SDS011;10791;53.108;18.326;2023-04-15T20:58:45;8.00;;;6.13;;
21266;SDS011;10791;53.108;18.326;2023-04-15T21:03:49;9.80;;;7.03;;
21266;SDS011;10791;53.108;18.326;2023-04-15T21:08:59;10.23;;;7.10;;
21266;SDS011;10791;53.108;18.326;2023-04-15T21:14:10;9.83;;;7.50;;
21266;SDS011;10791;53.108;18.326;2023-04-15T21:19:16;11.20;;;8.17;;
21266;SDS011;10791;53.108;18.326;2023-04-15T21:24:20;9.37;;;7.20;;
21266;SDS011;10791;53.108;18.326;2023-04-15T21:29:26;10.50;;;7.13;;
21266;SDS011;10791;53.108;18.326;2023-04-15T21:34:29;10.27;;;7.47;;
21266;SDS011;10791;53.108;18.326;2023-04-15T21:39:32;8.13;;;6.67;;
21266;SDS011;10791;53.108;18.326;2023-04-15T21:44:36;8.40;;;6.17;;
21266;SDS011;10791;53.108;18.326;2023-04-15T21:49:39;9.33;;;7.30;;
21266;SDS011;10791;53.108;18.326;2023-04-15T21:54:42;7.97;;;6.87;;
21266;SDS011;10791;53.108;18.326;2023-04-15T21:59:45;11.50;;;7.50;;
21266;SDS011;10791;53.108;18.326;2023-04-15T22:04:49;10.17;;;7.70;;
21266;SDS011;10791;53.108;18.326;2023-04-15T22:09:52;13.10;;;7.97;;
21266;SDS011;10791;53.108;18.326;2023-04-15T22:14:56;11.37;;;7.87;;
21266;SDS011;10791;53.108;18.326;2023-04-15T22:20:00;8.33;;;6.87;;
21266;SDS011;10791;53.108;18.326;2023-04-15T22:25:03;10.27;;;8.10;;
21266;SDS011;10791;53.108;18.326;2023-04-15T22:30:08;10.03;;;7.33;;
21266;SDS011;10791;53.108;18.326;2023-04-15T22:35:12;8.47;;;7.50;;
21266;SDS011;10791;53.108;18.326;2023-04-15T22:40:15;9.70;;;7.47;;
21266;SDS011;10791;53.108;18.326;2023-04-15T22:45:19;9.57;;;7.33;;
21266;SDS011;10791;53.108;18.326;2023-04-15T22:50:23;10.43;;;7.60;;
21266;SDS011;10791;53.108;18.326;2023-04-15T22:55:26;8.63;;;7.23;;
21266;SDS011;10791;53.108;18.326;2023-04-15T23:00:29;10.43;;;8.10;;
21266;SDS011;10791;53.108;18.326;2023-04-15T23:05:32;11.77;;;7.37;;
21266;SDS011;10791;53.108;18.326;2023-04-15T23:10:36;10.53;;;8.00;;
21266;SDS011;10791;53.108;18.326;2023-04-15T23:15:41;9.57;;;7.17;;
21266;SDS011;10791;53.108;18.326;2023-04-15T23:20:44;10.97;;;7.73;;
21266;SDS011;10791;53.108;18.326;2023-04-15T23:25:48;10.57;;;7.63;;
21266;SDS011;10791;53.108;18.326;2023-04-15T23:30:51;8.47;;;6.90;;
21266;SDS011;10791;53.108;18.326;2023-04-15T23:35:55;11.97;;;8.20;;
21266;SDS011;10791;53.108;18.326;2023-04-15T23:40:58;11.30;;;8.20;;
21266;SDS011;10791;53.108;18.326;2023-04-15T23:46:02;9.73;;;7.10;;
21266;SDS011;10791;53.108;18.326;2023-04-15T23:51:05;10.57;;;8.03;;
21266;SDS011;10791;53.108;18.326;2023-04-15T23:56:09;9.80;;;6.97;;
